Time;durP1;ratioP1;P1;durP2;ratioP2;P2;SDS_P1;SDS_P2;PMS_P1;PMS_P2;Temp;Humidity;BMP_temperature;BMP_pressure;BME280_temperature;BME280_humidity;BME280_pressure;Samples;Min_cycle;Max_cycle;Signal;HPM_P1;HPM_P2
2023/06/22 00:03:00;;;;;;;4.43;1.95;;;;;;;;;;6288796;28;20012;-71
2023/06/22 00:06:00;;;;;;;2.72;2.13;;;;;;;;;;6289737;28;20025;-71
2023/06/22 00:09:00;;;;;;;;;;;;;;;;;;6284160;28;20031;-73
2023/06/22 00:12:00;;;;;;;2.70;1.45;;;;;;;;;;6290162;28;19934;-71
2023/06/22 00:15:01;;;;;;;;;;;;;;;;;;6292063;28;20393;-71
2023/06/22 00:18:02;;;;;;;2.45;1.58;;;;;;;;;;6293122;28;19919;-72
2023/06/22 00:21:03;;;;;;;2.53;1.88;;;;;;;;;;6289866;28;20046;-71
2023/06/22 00:24:03;;;;;;;;;;;;;;;;;;6292574;28;20024;-72
2023/06/22 00:27:05;;;;;;;5.43;2.00;;;;;;;;;;6284608;28;19912;-72
2023/06/22 00:30:05;;;;;;;2.97;1.88;;;;;;;;;;6284346;28;20013;-72
2023/06/22 00:33:07;;;;;;;;;;;;;;;;;;6288819;28;20067;-72
2023/06/22 00:36:07;;;;;;;1.80;1.45;;;;;;;;;;6283552;28;19951;-72
2023/06/22 00:39:08;;;;;;;;;;;;;;;;;;6287432;28;20020;-72
2023/06/22 00:42:08;;;;;;;1.93;1.60;;;;;;;;;;6292019;28;19916;-71
2023/06/22 00:45:09;;;;;;;3.40;1.75;;;;;;;;;;6287275;28;20044;-71
2023/06/22 00:48:09;;;;;;;4.03;2.10;;;;;;;;;;6286998;28;20016;-73
2023/06/22 00:51:09;;;;;;;;;;;;;;;;;;6284918;28;20020;-71
2023/06/22 00:54:10;;;;;;;6.33;2.07;;;;;;;;;;6287862;28;20269;-70
2023/06/22 00:57:17;;;;;;;4.15;2.08;;;;;;;;;;5928019;28;9999795;-70
2023/06/22 01:00:19;;;;;;;3.72;2.05;;;;;;;;;;6281467;28;20095;-71
2023/06/22 01:03:20;;;;;;;2.55;1.83;;;;;;;;;;6290991;28;20393;-69
2023/06/22 01:06:38;;;;;;;2.55;1.85;;;;;;;;;;6283146;28;20016;-70
2023/06/22 01:09:45;;;;;;;3.97;1.85;;;;;;;;;;6273289;28;20403;-70
2023/06/22 01:12:50;;;;;;;4.95;2.13;;;;;;;;;;6278171;28;20021;-70
2023/06/22 01:16:00;;;;;;;9.18;2.25;;;;;;;;;;6285778;28;20027;-70
2023/06/22 01:19:03;;;;;;;3.58;2.25;;;;;;;;;;6287055;28;20017;-70
2023/06/22 01:22:05;;;;;;;5.25;2.20;;;;;;;;;;6289905;28;20055;-74
2023/06/22 01:25:08;;;;;;;4.80;2.40;;;;;;;;;;6291353;28;20089;-72
2023/06/22 01:28:19;;;;;;;4.40;2.35;;;;;;;;;;6286822;28;20040;-73
2023/06/22 01:31:22;;;;;;;3.10;1.70;;;;;;;;;;6277674;28;20029;-70
2023/06/22 01:34:22;;;;;;;3.60;2.25;;;;;;;;;;5256736;28;10000991;-72
2023/06/22 01:37:23;;;;;;;;;;;;;;;;;;6289622;28;21039;-72
2023/06/22 01:40:24;;;;;;;2.95;1.90;;;;;;;;;;6291188;28;20010;-71
2023/06/22 01:43:26;;;;;;;3.78;2.17;;;;;;;;;;6291467;28;20019;-72
2023/06/22 01:46:26;;;;;;;3.88;2.10;;;;;;;;;;6289403;28;20031;-73
2023/06/22 01:49:27;;;;;;;;;;;;;;;;;;6297013;28;20376;-71
2023/06/22 01:52:27;;;;;;;2.43;1.87;;;;;;;;;;6293785;28;19912;-71
2023/06/22 01:55:27;;;;;;;;;;;;;;;;;;6289828;28;20525;-75
2023/06/22 01:58:29;;;;;;;2.78;1.55;;;;;;;;;;6286182;28;19967;-71
2023/06/22 02:01:35;;;;;;;3.65;1.80;;;;;;;;;;6290578;28;20017;-71
2023/06/22 02:04:46;;;;;;;3.67;2.10;;;;;;;;;;6293360;28;20017;-71
2023/06/22 02:07:49;;;;;;;3.45;1.92;;;;;;;;;;6282398;28;20024;-72
2023/06/22 02:10:50;;;;;;;3.25;1.98;;;;;;;;;;6292886;28;20050;-71
2023/06/22 02:13:51;;;;;;;6.00;2.55;;;;;;;;;;6295851;28;20043;-70
2023/06/22 02:16:51;;;;;;;;;;;;;;;;;;6290528;28;20017;-70
2023/06/22 02:19:52;;;;;;;2.45;1.88;;;;;;;;;;6288764;28;19908;-70
2023/06/22 02:22:52;;;;;;;;;;;;;;;;;;6295578;28;20321;-71
2023/06/22 02:25:52;;;;;;;1.90;1.67;;;;;;;;;;6293515;28;19904;-69
2023/06/22 02:28:52;;;;;;;;;;;;;;;;;;6295595;28;20455;-72
2023/06/22 02:31:53;;;;;;;3.77;2.10;;;;;;;;;;6291566;28;19908;-70
2023/06/22 02:34:53;;;;;;;;;;;;;;;;;;6293828;28;20016;-72
2023/06/22 02:37:54;;;;;;;3.15;1.60;;;;;;;;;;6296001;28;20397;-70
2023/06/22 02:40:54;;;;;;;;;;;;;;;;;;6292909;28;20546;-70
2023/06/22 02:43:54;;;;;;;2.70;1.70;;;;;;;;;;6293139;28;20478;-70
2023/06/22 02:46:54;;;;;;;;;;;;;;;;;;6294136;28;20024;-71
2023/06/22 02:49:55;;;;;;;2.55;1.80;;;;;;;;;;6290942;28;19913;-70
2023/06/22 02:52:55;;;;;;;;;;;;;;;;;;6289919;28;20070;-71
2023/06/22 02:55:55;;;;;;;3.45;2.10;;;;;;;;;;6290394;28;19934;-71
2023/06/22 02:59:01;;;;;;;;;;;;;;;;;;6294715;28;20040;-71
2023/06/22 03:02:02;;;;;;;3.70;1.38;;;;;;;;;;6284147;28;19915;-71
2023/06/22 03:05:03;;;;;;;5.45;2.53;;;;;;;;;;6292179;28;20545;-70
2023/06/22 03:08:04;;;;;;;4.35;2.70;;;;;;;;;;6294465;28;20154;-71
2023/06/22 03:11:04;;;;;;;;;;;;;;;;;;6291815;28;20450;-70
2023/06/22 03:14:04;;;;;;;4.70;2.30;;;;;;;;;;6289026;28;20373;-70
2023/06/22 03:17:04;;;;;;;;;;;;;;;;;;6293916;28;20285;-69
2023/06/22 03:20:10;;;;;;;2.67;1.98;;;;;;;;;;6295016;28;19909;-69
2023/06/22 03:23:10;;;;;;;3.97;1.83;;;;;;;;;;6294828;28;20089;-69
2023/06/22 03:26:10;;;;;;;;;;;;;;;;;;6293651;28;20024;-71
2023/06/22 03:29:11;;;;;;;2.20;1.70;;;;;;;;;;6292637;28;20350;-70
2023/06/22 03:32:11;;;;;;;;;;;;;;;;;;6287158;28;20181;-69
2023/06/22 03:35:13;;;;;;;3.88;1.83;;;;;;;;;;6291817;28;19958;-70
2023/06/22 03:38:14;;;;;;;4.50;2.40;;;;;;;;;;6292617;28;20024;-69
2023/06/22 03:41:14;;;;;;;;;;;;;;;;;;6289826;28;20048;-70
2023/06/22 03:44:14;;;;;;;2.33;1.67;;;;;;;;;;6287403;28;19908;-71
2023/06/22 03:47:15;;;;;;;;;;;;;;;;;;6291330;28;20105;-70
2023/06/22 03:50:15;;;;;;;2.53;1.70;;;;;;;;;;6284708;28;20358;-72
2023/06/22 03:53:15;;;;;;;;;;;;;;;;;;6295129;28;20016;-72
2023/06/22 03:56:20;;;;;;;2.17;1.75;;;;;;;;;;6282492;28;20205;-72
2023/06/22 03:59:21;;;;;;;2.72;1.67;;;;;;;;;;6286588;28;20087;-73
2023/06/22 04:02:21;;;;;;;;;;;;;;;;;;6291064;28;20016;-72
2023/06/22 04:05:21;;;;;;;5.35;2.05;;;;;;;;;;6289547;28;19908;-72
2023/06/22 04:08:21;;;;;;;;;;;;;;;;;;6289785;28;20024;-73
2023/06/22 04:11:22;;;;;;;2.27;1.60;;;;;;;;;;6288970;28;19931;-72
2023/06/22 04:14:22;;;;;;;;;;;;;;;;;;6286953;28;20501;-71
2023/06/22 04:17:24;;;;;;;2.80;1.60;;;;;;;;;;6287733;28;19908;-72
2023/06/22 04:20:28;;;;;;;4.32;2.22;;;;;;;;;;6290209;28;20070;-73
2023/06/22 04:23:28;;;;;;;4.13;1.70;;;;;;;;;;6284786;28;20072;-72
2023/06/22 04:26:28;;;;;;;;;;;;;;;;;;6289669;28;20063;-73
2023/06/22 04:29:31;;;;;;;3.00;2.13;;;;;;;;;;6284338;28;19909;-70
2023/06/22 04:32:32;;;;;;;3.05;2.10;;;;;;;;;;6291781;28;20024;-70
2023/06/22 04:35:32;;;;;;;;;;;;;;;;;;6290345;28;20435;-70
2023/06/22 04:38:34;;;;;;;4.03;2.33;;;;;;;;;;6294225;28;20262;-71
2023/06/22 04:41:41;;;;;;;3.80;2.90;;;;;;;;;;6290933;28;20024;-72
2023/06/22 04:44:42;;;;;;;3.72;2.45;;;;;;;;;;6292653;28;20025;-72
2023/06/22 04:47:42;;;;;;;;;;;;;;;;;;6284971;28;20021;-72
2023/06/22 04:50:44;;;;;;;4.05;1.98;;;;;;;;;;6286974;28;19916;-73
2023/06/22 04:53:44;;;;;;;4.07;2.30;;;;;;;;;;6290103;28;20024;-73
2023/06/22 04:56:46;;;;;;;;;;;;;;;;;;6279416;28;20663;-72
2023/06/22 04:59:47;;;;;;;4.30;2.20;;;;;;;;;;6278134;28;19913;-76
2023/06/22 05:02:47;;;;;;;;;;;;;;;;;;6287386;28;20020;-73
2023/06/22 05:05:47;;;;;;;2.53;1.70;;;;;;;;;;6281905;28;19908;-73
2023/06/22 05:08:48;;;;;;;2.85;1.95;;;;;;;;;;6290317;28;20111;-72
2023/06/22 05:11:48;;;;;;;3.30;2.00;;;;;;;;;;6279057;28;20049;-73
2023/06/22 05:14:48;;;;;;;6.07;2.33;;;;;;;;;;6288565;28;20490;-73
2023/06/22 05:17:49;;;;;;;3.97;1.98;;;;;;;;;;6293976;28;20020;-74
2023/06/22 05:20:49;;;;;;;2.47;2.10;;;;;;;;;;6286803;28;20016;-73
2023/06/22 05:23:50;;;;;;;4.50;2.10;;;;;;;;;;6289502;28;20070;-72
2023/06/22 05:26:50;;;;;;;4.60;2.50;;;;;;;;;;6292929;28;20013;-73
2023/06/22 05:29:50;;;;;;;3.85;2.53;;;;;;;;;;6287488;28;20045;-72
2023/06/22 05:32:52;;;;;;;3.75;2.35;;;;;;;;;;6293287;28;20028;-75
2023/06/22 05:35:53;;;;;;;4.50;2.40;;;;;;;;;;6293786;28;20432;-73
2023/06/22 05:38:53;;;;;;;3.72;2.42;;;;;;;;;;6292754;28;20017;-71
2023/06/22 05:41:53;;;;;;;3.83;2.63;;;;;;;;;;6288540;28;20036;-71
2023/06/22 05:44:53;;;;;;;4.25;2.78;;;;;;;;;;6285997;28;20055;-71
2023/06/22 05:47:54;;;;;;;4.38;2.60;;;;;;;;;;6295222;28;20023;-70
2023/06/22 05:50:54;;;;;;;4.93;2.97;;;;;;;;;;6296321;28;20077;-68
2023/06/22 05:53:55;;;;;;;5.95;2.97;;;;;;;;;;6295312;28;21727;-69
2023/06/22 05:56:55;;;;;;;4.93;2.90;;;;;;;;;;6296089;28;20016;-70
2023/06/22 05:59:55;;;;;;;6.07;2.83;;;;;;;;;;6294254;28;20626;-68
2023/06/22 06:02:56;;;;;;;3.47;2.83;;;;;;;;;;6287520;28;20105;-68
2023/06/22 06:05:56;;;;;;;3.03;2.47;;;;;;;;;;6291571;28;20056;-68
2023/06/22 06:08:59;;;;;;;3.83;2.40;;;;;;;;;;6306018;28;20017;-67
2023/06/22 06:11:59;;;;;;;4.05;2.53;;;;;;;;;;6287848;28;20020;-69
2023/06/22 06:15:00;;;;;;;5.13;2.83;;;;;;;;;;6303016;28;20032;-67
2023/06/22 06:18:01;;;;;;;4.28;2.78;;;;;;;;;;6295288;28;20024;-68
2023/06/22 06:21:02;;;;;;;6.25;2.65;;;;;;;;;;6293479;28;20075;-67
2023/06/22 06:24:02;;;;;;;4.50;2.78;;;;;;;;;;6297942;28;20501;-67
2023/06/22 06:27:04;;;;;;;3.67;2.38;;;;;;;;;;6303960;28;20016;-68
2023/06/22 06:30:05;;;;;;;2.67;2.15;;;;;;;;;;6304434;28;20020;-68
2023/06/22 06:33:08;;;;;;;3.20;2.30;;;;;;;;;;6286392;28;20033;-70
2023/06/22 06:36:08;;;;;;;4.40;2.30;;;;;;;;;;6290054;28;20013;-69
2023/06/22 06:39:09;;;;;;;4.38;2.42;;;;;;;;;;6287430;28;20031;-68
2023/06/22 06:42:11;;;;;;;4.00;2.15;;;;;;;;;;6297291;28;20024;-67
2023/06/22 06:45:12;;;;;;;5.05;2.50;;;;;;;;;;6300795;28;20138;-68
2023/06/22 06:48:13;;;;;;;4.22;2.83;;;;;;;;;;6302432;28;21473;-68
2023/06/22 06:51:15;;;;;;;4.68;3.05;;;;;;;;;;6297981;28;20044;-66
2023/06/22 06:54:15;;;;;;;8.43;3.30;;;;;;;;;;6296041;28;20023;-69
2023/06/22 06:57:15;;;;;;;6.93;3.55;;;;;;;;;;6296395;28;20454;-69
2023/06/22 07:00:16;;;;;;;6.45;3.35;;;;;;;;;;6288102;28;20020;-70
2023/06/22 07:03:17;;;;;;;6.03;3.30;;;;;;;;;;6287739;28;20016;-70
2023/06/22 07:06:17;;;;;;;6.22;3.45;;;;;;;;;;6293085;28;20436;-71
2023/06/22 07:09:18;;;;;;;5.03;3.17;;;;;;;;;;6297224;28;20028;-69
2023/06/22 07:12:18;;;;;;;7.50;3.70;;;;;;;;;;6300061;28;20017;-71
2023/06/22 07:15:19;;;;;;;5.05;3.72;;;;;;;;;;6308385;28;20031;-70
2023/06/22 07:18:19;;;;;;;8.10;4.95;;;;;;;;;;6298035;28;20012;-70
2023/06/22 07:21:20;;;;;;;8.55;5.07;;;;;;;;;;6302212;28;20480;-71
2023/06/22 07:24:21;;;;;;;8.30;5.60;;;;;;;;;;6302090;28;20385;-71
2023/06/22 07:27:21;;;;;;;9.27;5.85;;;;;;;;;;6290854;28;20115;-70
2023/06/22 07:30:21;;;;;;;8.63;6.38;;;;;;;;;;6298182;28;20028;-71
2023/06/22 07:33:22;;;;;;;8.82;6.53;;;;;;;;;;6299007;28;20066;-70
2023/06/22 07:36:22;;;;;;;13.63;7.53;;;;;;;;;;6296984;28;20031;-70
2023/06/22 07:39:26;;;;;;;8.30;6.40;;;;;;;;;;6291234;28;20290;-70
2023/06/22 07:42:27;;;;;;;8.40;6.53;;;;;;;;;;5592154;28;10000741;-70
2023/06/22 07:45:30;;;;;;;9.68;6.47;;;;;;;;;;6276725;28;20098;-71
2023/06/22 07:48:30;;;;;;;8.75;5.68;;;;;;;;;;6299390;28;20023;-71
2023/06/22 07:51:31;;;;;;;7.47;5.63;;;;;;;;;;6302314;28;20020;-72
2023/06/22 07:54:31;;;;;;;7.30;5.03;;;;;;;;;;6297157;28;20033;-71
2023/06/22 07:57:35;;;;;;;8.50;6.28;;;;;;;;;;6296774;28;20024;-71
2023/06/22 08:00:36;;;;;;;7.68;6.63;;;;;;;;;;6295077;28;20062;-72
2023/06/22 08:03:36;;;;;;;8.05;5.85;;;;;;;;;;6289017;28;20020;-71
2023/06/22 08:06:37;;;;;;;10.52;6.20;;;;;;;;;;6302663;28;20030;-72
2023/06/22 08:09:37;;;;;;;7.30;5.43;;;;;;;;;;6294669;28;20478;-72
2023/06/22 08:12:38;;;;;;;8.43;5.55;;;;;;;;;;6280272;28;20031;-71
2023/06/22 08:15:38;;;;;;;7.32;5.50;;;;;;;;;;6272853;28;20094;-72
2023/06/22 08:18:38;;;;;;;7.22;5.43;;;;;;;;;;6281329;28;20027;-72
2023/06/22 08:21:38;;;;;;;8.88;6.03;;;;;;;;;;6286302;28;20020;-73
2023/06/22 08:24:39;;;;;;;8.15;5.70;;;;;;;;;;6282437;28;20111;-72
2023/06/22 08:27:39;;;;;;;7.53;5.97;;;;;;;;;;6287676;28;20030;-73
2023/06/22 08:30:39;;;;;;;9.73;6.57;;;;;;;;;;6276727;28;20279;-71
2023/06/22 08:33:40;;;;;;;11.40;6.15;;;;;;;;;;6279554;28;20041;-72
2023/06/22 08:36:43;;;;;;;7.18;6.00;;;;;;;;;;6280802;28;20048;-72
2023/06/22 08:39:43;;;;;;;8.02;5.90;;;;;;;;;;6283170;28;20255;-72
2023/06/22 08:42:43;;;;;;;5.93;5.37;;;;;;;;;;6284857;28;20043;-72
2023/06/22 08:45:44;;;;;;;7.50;6.00;;;;;;;;;;6271612;28;20021;-72
2023/06/22 08:48:44;;;;;;;8.73;5.40;;;;;;;;;;6277119;28;20270;-72
2023/06/22 08:51:45;;;;;;;7.35;6.13;;;;;;;;;;6283978;28;20121;-71
2023/06/22 08:54:46;;;;;;;6.60;5.93;;;;;;;;;;6278700;28;20032;-72
2023/06/22 08:57:46;;;;;;;8.13;5.90;;;;;;;;;;6285062;28;20024;-72
2023/06/22 09:00:47;;;;;;;7.03;5.95;;;;;;;;;;6273992;28;20124;-72
2023/06/22 09:03:54;;;;;;;7.45;6.38;;;;;;;;;;6281599;28;20115;-72
2023/06/22 09:06:54;;;;;;;7.90;5.93;;;;;;;;;;6285355;28;20093;-71
2023/06/22 09:09:55;;;;;;;9.03;6.80;;;;;;;;;;6272254;28;20122;-72
2023/06/22 09:12:55;;;;;;;12.80;6.78;;;;;;;;;;6283748;28;20273;-72
2023/06/22 09:15:55;;;;;;;9.35;6.43;;;;;;;;;;6280442;28;20103;-72
2023/06/22 09:18:56;;;;;;;8.73;6.47;;;;;;;;;;6276232;28;20150;-72
2023/06/22 09:21:57;;;;;;;8.00;6.60;;;;;;;;;;6271686;28;20016;-72
2023/06/22 09:24:57;;;;;;;8.27;6.68;;;;;;;;;;6276426;28;20017;-72
2023/06/22 09:27:58;;;;;;;8.90;6.53;;;;;;;;;;6279521;28;20036;-72
2023/06/22 09:30:59;;;;;;;7.55;6.22;;;;;;;;;;6288054;28;20084;-72
2023/06/22 09:33:59;;;;;;;8.57;5.63;;;;;;;;;;6285777;28;20028;-72
2023/06/22 09:37:00;;;;;;;6.53;5.50;;;;;;;;;;6274376;28;20021;-72
2023/06/22 09:40:01;;;;;;;6.53;5.45;;;;;;;;;;6283587;28;20032;-72
2023/06/22 09:43:01;;;;;;;7.10;5.68;;;;;;;;;;6276701;28;20043;-72
2023/06/22 09:46:02;;;;;;;10.48;5.82;;;;;;;;;;6274947;28;20111;-71
2023/06/22 09:49:02;;;;;;;6.85;5.88;;;;;;;;;;6280055;28;20101;-72
2023/06/22 09:52:03;;;;;;;10.02;5.45;;;;;;;;;;6282173;28;20104;-72
2023/06/22 09:55:04;;;;;;;7.97;5.50;;;;;;;;;;6281189;28;20079;-72
2023/06/22 09:58:04;;;;;;;9.45;5.65;;;;;;;;;;6276393;28;20137;-71
2023/06/22 10:01:05;;;;;;;8.80;5.47;;;;;;;;;;6271659;28;20021;-72
2023/06/22 10:04:05;;;;;;;6.72;5.75;;;;;;;;;;6285564;28;20031;-72
2023/06/22 10:07:06;;;;;;;7.17;5.90;;;;;;;;;;6273403;28;20021;-72
2023/06/22 10:10:06;;;;;;;7.97;6.03;;;;;;;;;;6289731;28;20031;-72
2023/06/22 10:13:10;;;;;;;8.35;5.38;;;;;;;;;;6292261;28;20024;-72
2023/06/22 10:16:11;;;;;;;8.50;5.80;;;;;;;;;;6289689;28;20024;-71
2023/06/22 10:19:11;;;;;;;7.90;5.30;;;;;;;;;;6283717;28;20470;-72
2023/06/22 10:22:11;;;;;;;9.20;5.27;;;;;;;;;;6289150;28;20289;-71
2023/06/22 10:25:12;;;;;;;7.17;5.10;;;;;;;;;;6291755;28;20031;-71
2023/06/22 10:28:13;;;;;;;5.85;4.47;;;;;;;;;;6282624;28;20021;-71
2023/06/22 10:31:14;;;;;;;5.95;4.68;;;;;;;;;;6283741;28;20143;-71
2023/06/22 10:34:14;;;;;;;7.07;4.63;;;;;;;;;;6287635;28;20462;-71
2023/06/22 10:37:14;;;;;;;4.90;4.40;;;;;;;;;;6293286;28;20094;-70
2023/06/22 10:40:20;;;;;;;8.73;4.00;;;;;;;;;;6286504;28;20017;-71
2023/06/22 10:43:21;;;;;;;5.68;3.88;;;;;;;;;;6297054;28;20017;-70
2023/06/22 10:46:21;;;;;;;5.63;4.07;;;;;;;;;;6301404;28;20036;-71
2023/06/22 10:49:21;;;;;;;4.43;3.60;;;;;;;;;;6291415;28;20033;-70
2023/06/22 10:52:22;;;;;;;5.87;3.60;;;;;;;;;;6283559;28;20056;-72
2023/06/22 10:55:22;;;;;;;3.17;2.87;;;;;;;;;;6285908;28;20764;-70
2023/06/22 10:58:22;;;;;;;7.07;3.00;;;;;;;;;;6297056;28;20016;-70
2023/06/22 11:01:23;;;;;;;5.47;3.00;;;;;;;;;;6294521;28;20271;-70
2023/06/22 11:04:23;;;;;;;5.07;3.20;;;;;;;;;;6302193;28;20121;-70
2023/06/22 11:07:24;;;;;;;3.35;2.90;;;;;;;;;;6294398;28;20024;-70
2023/06/22 11:10:27;;;;;;;6.28;3.05;;;;;;;;;;6284410;28;20140;-71
2023/06/22 11:13:27;;;;;;;5.63;3.30;;;;;;;;;;6295640;28;20020;-71
2023/06/22 11:16:28;;;;;;;7.45;3.25;;;;;;;;;;6296570;28;20065;-72
2023/06/22 11:19:28;;;;;;;7.90;3.63;;;;;;;;;;6296773;28;20028;-72
2023/06/22 11:22:29;;;;;;;5.60;3.07;;;;;;;;;;6295164;28;20080;-73
2023/06/22 11:25:30;;;;;;;4.65;3.20;;;;;;;;;;6299614;28;20262;-69
2023/06/22 11:28:33;;;;;;;6.07;3.55;;;;;;;;;;6288125;28;20017;-69
2023/06/22 11:31:37;;;;;;;4.07;3.40;;;;;;;;;;6280871;28;20116;-71
2023/06/22 11:34:38;;;;;;;8.15;4.03;;;;;;;;;;6297248;28;20028;-71
2023/06/22 11:37:38;;;;;;;5.57;3.97;;;;;;;;;;6292372;28;20020;-70
2023/06/22 11:40:39;;;;;;;4.40;4.00;;;;;;;;;;6283808;28;20056;-70
2023/06/22 11:43:39;;;;;;;5.07;4.07;;;;;;;;;;6280027;28;20255;-71
2023/06/22 11:46:40;;;;;;;6.75;3.70;;;;;;;;;;6291106;28;20048;-70
2023/06/22 11:49:41;;;;;;;4.00;3.65;;;;;;;;;;6293631;28;20029;-72
2023/06/22 11:52:41;;;;;;;8.38;3.63;;;;;;;;;;6283744;28;20094;-73
2023/06/22 11:55:41;;;;;;;4.95;3.65;;;;;;;;;;6308645;28;20020;-72
2023/06/22 11:58:42;;;;;;;4.43;3.27;;;;;;;;;;6288664;28;20020;-72
2023/06/22 12:01:42;;;;;;;5.03;2.93;;;;;;;;;;6286805;28;20734;-70
2023/06/22 12:04:42;;;;;;;6.20;2.95;;;;;;;;;;6282125;28;20377;-72
2023/06/22 12:07:43;;;;;;;6.27;3.07;;;;;;;;;;6274404;28;20650;-70
2023/06/22 12:10:43;;;;;;;5.30;3.00;;;;;;;;;;6282752;28;20070;-72
2023/06/22 12:13:44;;;;;;;5.22;2.88;;;;;;;;;;6282508;28;20086;-71
2023/06/22 12:16:44;;;;;;;4.10;3.13;;;;;;;;;;6294935;28;20107;-70
2023/06/22 12:19:47;;;;;;;10.38;3.40;;;;;;;;;;6289181;28;20013;-70
2023/06/22 12:22:58;;;;;;;3.60;3.03;;;;;;;;;;6286149;28;20037;-71
2023/06/22 12:26:01;;;;;;;4.70;3.22;;;;;;;;;;6277374;28;20366;-71
2023/06/22 12:29:07;;;;;;;4.72;3.17;;;;;;;;;;6286536;28;20062;-70
2023/06/22 12:32:08;;;;;;;6.45;3.47;;;;;;;;;;6284364;28;20090;-71
2023/06/22 12:35:13;;;;;;;5.57;3.30;;;;;;;;;;6284636;28;20519;-72
2023/06/22 12:38:13;;;;;;;3.92;3.30;;;;;;;;;;6291119;28;20584;-72
2023/06/22 12:41:13;;;;;;;4.40;3.27;;;;;;;;;;6285039;28;20113;-71
2023/06/22 12:44:14;;;;;;;4.17;3.33;;;;;;;;;;6287594;28;20059;-71
2023/06/22 12:47:14;;;;;;;4.50;3.45;;;;;;;;;;6292540;28;20487;-71
2023/06/22 12:50:15;;;;;;;5.20;3.53;;;;;;;;;;6291707;28;20029;-72
2023/06/22 12:53:15;;;;;;;7.28;3.92;;;;;;;;;;6293418;28;20282;-71
2023/06/22 12:56:15;;;;;;;5.28;3.67;;;;;;;;;;6285820;28;20028;-71
2023/06/22 12:59:17;;;;;;;3.60;3.08;;;;;;;;;;6289249;28;20020;-71
2023/06/22 13:02:17;;;;;;;3.75;3.30;;;;;;;;;;6288593;28;20013;-72
2023/06/22 13:05:18;;;;;;;10.60;3.90;;;;;;;;;;6282504;28;20035;-72
2023/06/22 13:08:19;;;;;;;5.07;3.70;;;;;;;;;;6271545;28;20021;-71
2023/06/22 13:11:19;;;;;;;5.35;4.00;;;;;;;;;;6283772;28;20027;-71
2023/06/22 13:14:19;;;;;;;5.97;3.92;;;;;;;;;;6279988;28;20059;-71
2023/06/22 13:17:20;;;;;;;4.32;3.60;;;;;;;;;;6277083;28;20103;-71
2023/06/22 13:20:21;;;;;;;4.30;3.90;;;;;;;;;;6276256;28;20112;-71
2023/06/22 13:23:21;;;;;;;4.22;3.85;;;;;;;;;;6279767;28;20451;-72
2023/06/22 13:26:22;;;;;;;7.10;4.23;;;;;;;;;;6286661;28;20016;-71
2023/06/22 13:29:22;;;;;;;8.40;4.60;;;;;;;;;;6270506;28;20013;-71
2023/06/22 13:32:22;;;;;;;5.40;4.07;;;;;;;;;;6274716;28;20179;-72
2023/06/22 13:35:23;;;;;;;4.57;3.77;;;;;;;;;;6289549;28;20131;-72
2023/06/22 13:38:26;;;;;;;5.87;4.20;;;;;;;;;;6290769;28;20031;-71
2023/06/22 13:41:27;;;;;;;4.35;3.90;;;;;;;;;;6275736;28;20457;-71
2023/06/22 13:44:28;;;;;;;4.93;3.77;;;;;;;;;;6288305;28;20113;-71
2023/06/22 13:47:29;;;;;;;6.65;4.00;;;;;;;;;;6282804;28;20477;-71
2023/06/22 13:50:30;;;;;;;4.40;3.78;;;;;;;;;;6292357;28;20031;-70
2023/06/22 13:53:30;;;;;;;4.77;4.37;;;;;;;;;;6287133;28;20020;-71
2023/06/22 13:56:31;;;;;;;4.60;3.92;;;;;;;;;;6292293;28;20044;-72
2023/06/22 13:59:31;;;;;;;4.20;3.60;;;;;;;;;;6286885;28;20552;-72
2023/06/22 14:02:35;;;;;;;6.70;4.40;;;;;;;;;;6283322;28;20013;-71
2023/06/22 14:05:35;;;;;;;4.63;4.15;;;;;;;;;;6292254;28;20278;-72
2023/06/22 14:08:37;;;;;;;5.33;3.87;;;;;;;;;;6300577;28;20078;-71
2023/06/22 14:11:40;;;;;;;5.15;3.90;;;;;;;;;;6283073;28;20036;-72
2023/06/22 14:14:41;;;;;;;4.47;3.72;;;;;;;;;;6285081;28;20025;-73
2023/06/22 14:17:41;;;;;;;6.95;4.63;;;;;;;;;;6281842;28;20121;-70
2023/06/22 14:20:42;;;;;;;5.75;4.47;;;;;;;;;;6298566;28;20025;-71
2023/06/22 14:23:47;;;;;;;5.45;4.20;;;;;;;;;;6298566;28;20055;-71
2023/06/22 14:26:47;;;;;;;7.22;3.88;;;;;;;;;;6291376;28;20041;-71
2023/06/22 14:29:47;;;;;;;4.70;4.20;;;;;;;;;;6292120;28;20029;-71
2023/06/22 14:32:48;;;;;;;4.50;3.73;;;;;;;;;;6295157;28;20105;-72
2023/06/22 14:35:49;;;;;;;6.70;4.38;;;;;;;;;;6299694;28;20297;-71
2023/06/22 14:38:49;;;;;;;4.20;3.80;;;;;;;;;;6288983;28;20089;-72
2023/06/22 14:41:50;;;;;;;4.50;4.10;;;;;;;;;;6293201;28;20017;-71
2023/06/22 14:44:50;;;;;;;5.68;4.50;;;;;;;;;;6295271;28;20505;-72
2023/06/22 14:47:50;;;;;;;6.33;4.60;;;;;;;;;;6288478;28;20035;-72
2023/06/22 14:50:51;;;;;;;5.03;4.07;;;;;;;;;;6298278;28;20020;-72
2023/06/22 14:53:51;;;;;;;6.27;4.40;;;;;;;;;;6285221;28;20024;-71
2023/06/22 14:56:52;;;;;;;4.88;4.00;;;;;;;;;;6272793;28;20259;-71
2023/06/22 14:59:52;;;;;;;9.50;4.73;;;;;;;;;;6272860;28;20028;-71
2023/06/22 15:02:52;;;;;;;9.52;4.55;;;;;;;;;;6292039;28;20103;-71
2023/06/22 15:05:53;;;;;;;8.10;4.80;;;;;;;;;;6280811;28;20488;-71
2023/06/22 15:08:53;;;;;;;7.13;4.55;;;;;;;;;;6289246;28;20033;-72
2023/06/22 15:11:54;;;;;;;6.32;4.35;;;;;;;;;;6281578;28;20029;-71
2023/06/22 15:14:54;;;;;;;7.40;4.73;;;;;;;;;;6283066;28;20032;-72
2023/06/22 15:17:54;;;;;;;4.50;4.10;;;;;;;;;;6278602;28;20085;-71
2023/06/22 15:20:55;;;;;;;7.37;4.30;;;;;;;;;;6287903;28;20092;-71
2023/06/22 15:23:55;;;;;;;4.77;4.30;;;;;;;;;;6277587;28;20329;-71
2023/06/22 15:26:56;;;;;;;6.07;5.35;;;;;;;;;;6282844;28;20691;-71
2023/06/22 15:29:56;;;;;;;7.18;5.22;;;;;;;;;;6286265;28;20391;-72
2023/06/22 15:32:57;;;;;;;5.70;4.80;;;;;;;;;;6286413;28;20024;-71
2023/06/22 15:35:58;;;;;;;6.90;4.60;;;;;;;;;;6281698;28;20013;-71
2023/06/22 15:38:58;;;;;;;4.97;4.40;;;;;;;;;;6280764;28;20036;-72
2023/06/22 15:41:59;;;;;;;8.02;4.63;;;;;;;;;;6282506;28;20062;-70
2023/06/22 15:44:59;;;;;;;7.90;4.30;;;;;;;;;;6279465;28;20024;-72
2023/06/22 15:48:00;;;;;;;6.28;4.53;;;;;;;;;;6289073;28;20392;-71
2023/06/22 15:51:01;;;;;;;6.45;5.05;;;;;;;;;;6291249;28;20009;-71
2023/06/22 15:54:06;;;;;;;7.75;4.95;;;;;;;;;;6290034;28;20016;-77
2023/06/22 15:57:07;;;;;;;9.43;5.95;;;;;;;;;;6284120;28;20446;-70
2023/06/22 16:00:09;;;;;;;8.10;4.68;;;;;;;;;;6273438;28;20097;-71
2023/06/22 16:03:09;;;;;;;6.88;5.38;;;;;;;;;;6288774;28;20428;-70
2023/06/22 16:06:09;;;;;;;8.25;5.22;;;;;;;;;;6279262;28;20157;-71
2023/06/22 16:09:10;;;;;;;7.15;5.47;;;;;;;;;;6283969;28;20106;-70
2023/06/22 16:12:10;;;;;;;7.43;6.00;;;;;;;;;;6290144;28;20016;-69
2023/06/22 16:15:11;;;;;;;6.35;5.38;;;;;;;;;;6277087;28;20314;-71
2023/06/22 16:18:11;;;;;;;6.45;5.05;;;;;;;;;;6279215;28;20366;-70
2023/06/22 16:21:12;;;;;;;6.22;5.40;;;;;;;;;;6288681;28;20021;-71
2023/06/22 16:24:12;;;;;;;7.43;5.03;;;;;;;;;;6276460;28;20616;-70
2023/06/22 16:27:13;;;;;;;7.93;5.17;;;;;;;;;;6279553;28;20027;-70
2023/06/22 16:30:13;;;;;;;5.78;4.97;;;;;;;;;;6274162;28;20062;-70
2023/06/22 16:33:14;;;;;;;11.93;5.80;;;;;;;;;;6281878;28;20064;-72
2023/06/22 16:36:14;;;;;;;8.82;5.55;;;;;;;;;;6280879;28;20454;-70
2023/06/22 16:39:14;;;;;;;7.53;6.30;;;;;;;;;;6282882;28;20036;-71
2023/06/22 16:42:16;;;;;;;6.78;6.07;;;;;;;;;;6279718;28;20078;-71
2023/06/22 16:45:17;;;;;;;7.60;6.10;;;;;;;;;;6272632;28;20385;-71
2023/06/22 16:48:17;;;;;;;7.82;5.70;;;;;;;;;;6277077;28;20017;-71
2023/06/22 16:51:17;;;;;;;8.03;5.50;;;;;;;;;;6277187;28;20443;-70
2023/06/22 16:54:18;;;;;;;6.10;5.50;;;;;;;;;;6273232;28;20743;-71
2023/06/22 16:57:19;;;;;;;6.10;5.40;;;;;;;;;;6271302;28;20479;-71
2023/06/22 17:00:20;;;;;;;8.10;5.20;;;;;;;;;;6282104;28;20083;-71
2023/06/22 17:03:28;;;;;;;7.70;5.15;;;;;;;;;;6275942;28;20025;-71
2023/06/22 17:06:29;;;;;;;6.40;5.43;;;;;;;;;;6279819;28;20048;-70
2023/06/22 17:09:29;;;;;;;9.15;5.50;;;;;;;;;;6277416;28;20017;-73
2023/06/22 17:12:30;;;;;;;7.88;5.22;;;;;;;;;;6279687;28;20481;-71
2023/06/22 17:15:31;;;;;;;11.50;5.65;;;;;;;;;;6278922;28;20028;-71
2023/06/22 17:18:32;;;;;;;9.30;5.85;;;;;;;;;;6277520;28;20482;-72
2023/06/22 17:21:33;;;;;;;6.72;5.40;;;;;;;;;;6271857;28;20021;-70
2023/06/22 17:24:33;;;;;;;8.23;5.72;;;;;;;;;;6274112;28;20115;-70
2023/06/22 17:27:34;;;;;;;6.82;5.50;;;;;;;;;;6275373;28;20505;-70
2023/06/22 17:30:34;;;;;;;6.97;5.57;;;;;;;;;;6280796;28;20029;-71
2023/06/22 17:33:35;;;;;;;9.93;5.38;;;;;;;;;;6277703;28;20108;-71
2023/06/22 17:36:45;;;;;;;6.20;5.60;;;;;;;;;;6268504;28;20017;-70
2023/06/22 17:39:51;;;;;;;7.00;5.28;;;;;;;;;;6284024;28;20029;-70
2023/06/22 17:42:51;;;;;;;12.57;6.00;;;;;;;;;;6284451;28;20035;-71
2023/06/22 17:45:51;;;;;;;6.90;5.55;;;;;;;;;;6274276;28;20021;-70
2023/06/22 17:48:52;;;;;;;7.22;5.25;;;;;;;;;;6278269;28;20012;-71
2023/06/22 17:51:53;;;;;;;7.05;5.47;;;;;;;;;;6279861;28;20135;-71
2023/06/22 17:54:53;;;;;;;7.18;5.40;;;;;;;;;;6274546;28;20128;-71
2023/06/22 17:57:57;;;;;;;8.15;5.65;;;;;;;;;;6275005;28;20084;-71
2023/06/22 18:01:00;;;;;;;6.53;5.53;;;;;;;;;;6285950;28;20625;-72
2023/06/22 18:04:11;;;;;;;9.95;6.25;;;;;;;;;;6278164;28;20013;-70
2023/06/22 18:07:11;;;;;;;9.50;5.85;;;;;;;;;;6282211;28;20024;-70
2023/06/22 18:10:12;;;;;;;6.97;5.90;;;;;;;;;;6278129;28;20453;-71
2023/06/22 18:13:14;;;;;;;8.90;5.35;;;;;;;;;;6281434;28;20299;-71
2023/06/22 18:16:15;;;;;;;8.00;5.88;;;;;;;;;;6281148;28;20017;-72
2023/06/22 18:19:15;;;;;;;7.20;5.72;;;;;;;;;;6277134;28;20403;-71